Terminal Aerodrome Forecast
Issued by NWS Atlanta, GA

Home | Current Version | Previous Version | Text Only | Print | Product List | Glossary On
Versions: 1 2 3 4 5 6 7 8 9 10 11 12 13 14 15
000
FTUS42 KFFC 251720
TAFCSG
TAF
KCSG 251720Z 2518/2618 34011G19KT P6SM BKN035
     FM252100 33010G19KT P6SM SCT040
     FM260000 32004KT P6SM FEW250
     FM261100 14004KT P6SM SCT030 SCT100 BKN250
     FM261500 18008KT P6SM VCSH SCT025 BKN100 PROB30 2616/2618 4SM
      TSRA BKN025CB=

USA.gov is the U.S. government's official web portal to all federal, state and local government web resources and services.